Time;durP1;ratioP1;P1;durP2;ratioP2;P2;SDS_P1;SDS_P2;PMS_P1;PMS_P2;Temp;Humidity;BMP_temperature;BMP_pressure;BME280_temperature;BME280_humidity;BME280_pressure;Samples;Min_cycle;Max_cycle;Signal;HPM_P1;HPM_P2
2024/01/30 00:00:08;;;;;;;16.70;10.27;;;2.00;99.90;1.00;101620;;;;557520;253;24122;-77
2024/01/30 00:02:35;;;;;;;27.60;11.83;;;2.00;99.90;1.00;101629;;;;567879;252;24230;-78
2024/01/30 00:05:03;;;;;;;22.70;10.93;;;2.00;99.90;1.00;101625;;;;556467;253;24156;-79
2024/01/30 00:07:31;;;;;;;21.90;11.77;;;2.00;99.90;1.00;101626;;;;556406;253;24169;-79
2024/01/30 00:09:59;;;;;;;25.67;10.37;;;2.00;99.90;1.00;101632;;;;556439;253;24170;-76
2024/01/30 00:12:27;;;;;;;24.13;12.33;;;2.00;99.90;1.00;101626;;;;556335;253;24120;-77
2024/01/30 00:14:55;;;;;;;18.93;10.23;;;2.00;99.90;1.00;101629;;;;556529;253;24109;-75
2024/01/30 00:17:25;;;;;;;19.53;10.20;;;2.00;99.90;1.00;101626;;;;556706;253;24134;-78
2024/01/30 00:19:51;;;;;;;22.50;11.30;;;2.00;99.90;0.90;101631;;;;566762;252;24167;-79
2024/01/30 00:22:19;;;;;;;29.40;10.87;;;2.00;99.90;0.90;101621;;;;556069;253;24179;-78
2024/01/30 00:24:47;;;;;;;22.87;12.13;;;1.90;99.90;0.80;101620;;;;556337;253;24121;-78
2024/01/30 00:27:16;;;;;;;23.53;10.97;;;1.90;99.90;0.80;101618;;;;556210;253;24119;-79
2024/01/30 00:29:44;;;;;;;23.80;12.43;;;1.80;99.90;0.70;101617;;;;556100;253;25202;-78
2024/01/30 00:32:12;;;;;;;18.47;12.10;;;1.80;99.90;0.70;101624;;;;556216;253;24423;-78
2024/01/30 00:34:40;;;;;;;19.50;12.70;;;1.80;99.90;0.70;101628;;;;556144;253;24115;-78
2024/01/30 00:37:08;;;;;;;26.17;11.37;;;1.70;99.90;0.60;101628;;;;556254;253;24137;-76
2024/01/30 00:39:39;;;;;;;19.60;11.20;;;1.70;99.90;0.60;101631;;;;556227;253;24123;-78
2024/01/30 00:42:04;;;;;;;25.57;12.17;;;1.60;99.90;0.50;101625;;;;557961;253;24120;-76
2024/01/30 00:44:33;;;;;;;22.20;11.37;;;1.60;99.90;0.50;101628;;;;558769;253;24159;-77
2024/01/30 00:47:00;;;;;;;22.57;11.37;;;1.60;99.90;0.50;101620;;;;556358;253;24117;-77
2024/01/30 00:49:28;;;;;;;25.83;12.47;;;1.50;99.90;0.40;101622;;;;557020;252;24107;-77
2024/01/30 00:51:56;;;;;;;31.27;12.80;;;1.50;99.90;0.30;101625;;;;568044;251;24131;-76
2024/01/30 00:54:24;;;;;;;29.23;14.20;;;1.40;99.90;0.20;101627;;;;557324;253;24119;-79
2024/01/30 00:56:52;;;;;;;35.10;18.93;;;1.30;99.90;0.20;101623;;;;556951;253;24184;-78
2024/01/30 00:59:21;;;;;;;36.87;20.10;;;1.20;99.90;0.10;101627;;;;556833;253;24125;-76
2024/01/30 01:01:49;;;;;;;39.07;22.57;;;1.10;99.90;0.10;101620;;;;556712;253;24112;-76
2024/01/30 01:04:18;;;;;;;38.77;23.63;;;1.10;99.90;0.00;101618;;;;556611;253;24150;-77
2024/01/30 01:06:45;;;;;;;40.40;23.90;;;1.10;99.90;-0.10;101620;;;;556628;253;24487;-76
2024/01/30 01:09:13;;;;;;;42.37;26.03;;;1.00;99.90;-0.20;101612;;;;567070;252;24176;-77
2024/01/30 01:11:41;;;;;;;55.00;31.00;;;0.90;99.90;-0.30;101613;;;;567227;252;24127;-77
2024/01/30 01:14:09;;;;;;;56.30;32.83;;;0.80;99.90;-0.40;101622;;;;567113;252;24122;-76
2024/01/30 01:16:37;;;;;;;51.20;31.23;;;0.70;99.90;-0.50;101614;;;;567412;252;24141;-76
2024/01/30 01:19:05;;;;;;;48.80;28.50;;;0.60;99.90;-0.60;101613;;;;567417;252;24131;-75
2024/01/30 01:21:33;;;;;;;55.87;34.03;;;0.50;99.90;-0.70;101623;;;;567043;252;24164;-77
2024/01/30 01:24:01;;;;;;;46.13;28.90;;;0.40;99.90;-0.70;101612;;;;567178;251;24154;-75
2024/01/30 01:26:28;;;;;;;48.93;29.37;;;0.40;99.90;-0.80;101608;;;;566870;252;24116;-75
2024/01/30 01:28:56;;;;;;;49.80;31.27;;;0.30;99.90;-0.80;101613;;;;566746;252;24128;-76
2024/01/30 01:31:24;;;;;;;49.00;28.90;;;0.20;99.90;-0.90;101607;;;;566872;252;24177;-76
2024/01/30 01:33:52;;;;;;;45.83;27.93;;;0.20;99.90;-1.00;101603;;;;566762;252;24129;-75
2024/01/30 01:36:24;;;;;;;45.13;25.83;;;0.20;99.90;-0.90;101614;;;;566916;252;24153;-77
2024/01/30 01:38:49;;;;;;;49.60;29.37;;;0.20;99.90;-0.90;101605;;;;558263;253;24126;-77
2024/01/30 01:41:17;;;;;;;52.97;31.97;;;0.10;99.90;-1.00;101612;;;;566749;252;24139;-75
2024/01/30 01:43:45;;;;;;;48.60;30.63;;;0.10;99.90;-1.00;101609;;;;566874;252;24160;-76
2024/01/30 01:46:14;;;;;;;43.80;28.80;;;0.00;99.90;-1.10;101602;;;;567063;252;24158;-76
2024/01/30 01:48:46;;;;;;;44.47;28.00;;;0.00;99.90;-1.10;101606;;;;567111;252;24136;-76
2024/01/30 01:51:11;;;;;;;46.57;26.13;;;0.00;99.90;-1.10;101605;;;;556232;257;24149;-76
2024/01/30 01:53:40;;;;;;;43.07;26.37;;;0.00;99.90;-1.00;101612;;;;546176;262;24178;-76
2024/01/30 01:56:08;;;;;;;42.57;26.50;;;0.00;99.90;-1.00;101615;;;;538351;262;24189;-76
2024/01/30 01:58:36;;;;;;;39.43;25.53;;;0.10;99.90;-0.90;101607;;;;538230;262;24233;-75
2024/01/30 02:01:04;;;;;;;40.07;25.60;;;0.10;99.90;-0.80;101600;;;;548122;257;24156;-75
2024/01/30 02:03:32;;;;;;;45.10;26.97;;;0.20;99.90;-0.70;101603;;;;554362;259;24176;-76
2024/01/30 02:06:00;;;;;;;43.63;26.30;;;0.40;99.90;-0.50;101600;;;;546222;259;24204;-75
2024/01/30 02:08:28;;;;;;;44.87;26.57;;;0.50;99.90;-0.40;101592;;;;545482;259;24224;-75
2024/01/30 02:10:56;;;;;;;47.83;27.40;;;0.60;99.90;-0.40;101584;;;;554080;258;24248;-75
2024/01/30 02:13:23;;;;;;;46.73;26.73;;;0.70;99.90;-0.30;101582;;;;545682;259;24416;-75
2024/01/30 02:15:55;;;;;;;41.83;25.13;;;0.70;99.90;-0.30;101579;;;;553535;259;24186;-76
2024/01/30 02:18:23;;;;;;;39.57;24.80;;;0.70;99.90;-0.30;101567;;;;553724;259;25220;-75
2024/01/30 02:20:47;;;;;;;39.43;23.97;;;0.80;99.90;-0.20;101565;;;;545575;259;24143;-76
2024/01/30 02:23:15;;;;;;;41.07;25.87;;;0.80;99.90;-0.20;101563;;;;545628;259;24211;-76
2024/01/30 02:25:46;;;;;;;40.67;25.63;;;0.80;99.90;-0.20;101561;;;;545406;259;25199;-76
2024/01/30 02:28:17;;;;;;;36.93;20.83;;;0.90;99.90;-0.10;101571;;;;546282;259;24177;-76
2024/01/30 02:30:45;;;;;;;34.60;20.27;;;0.90;99.90;-0.10;101575;;;;554246;259;24268;-76
2024/01/30 02:33:13;;;;;;;37.63;20.80;;;1.00;99.90;-0.10;101580;;;;554154;259;24196;-76
2024/01/30 02:35:42;;;;;;;31.80;18.63;;;0.90;99.90;-0.10;101575;;;;545847;259;25319;-73
2024/01/30 02:38:10;;;;;;;32.40;21.33;;;0.90;99.90;-0.10;101562;;;;567196;252;24139;-76
2024/01/30 02:40:38;;;;;;;41.87;21.87;;;0.90;99.90;-0.10;101565;;;;567846;252;24137;-74
2024/01/30 02:43:06;;;;;;;42.10;21.10;;;0.90;99.90;-0.20;101564;;;;567201;252;24132;-75
2024/01/30 02:45:34;;;;;;;33.20;20.57;;;0.90;99.90;-0.20;101564;;;;566872;252;24197;-74
2024/01/30 02:48:02;;;;;;;40.47;23.03;;;0.90;99.90;-0.20;101562;;;;567279;252;24177;-76
2024/01/30 02:50:30;;;;;;;39.27;21.63;;;0.80;99.90;-0.30;101573;;;;567260;252;24162;-77
2024/01/30 02:52:57;;;;;;;37.50;21.87;;;0.80;99.90;-0.30;101565;;;;568220;252;24118;-76
2024/01/30 02:55:25;;;;;;;40.10;22.33;;;0.70;99.90;-0.40;101573;;;;566951;253;24177;-76
2024/01/30 02:57:54;;;;;;;34.67;22.10;;;0.60;99.90;-0.40;101576;;;;567196;252;24139;-76
2024/01/30 03:00:22;;;;;;;38.83;24.90;;;0.60;99.90;-0.50;101574;;;;566868;252;24147;-75
2024/01/30 03:02:50;;;;;;;42.30;25.37;;;0.60;99.90;-0.60;101575;;;;566749;252;24168;-76
2024/01/30 03:05:18;;;;;;;47.63;27.60;;;0.50;99.90;-0.60;101581;;;;566824;252;24114;-76
2024/01/30 03:07:46;;;;;;;47.70;25.60;;;0.40;99.90;-0.70;101574;;;;566784;252;24144;-76
2024/01/30 03:10:14;;;;;;;46.43;26.37;;;0.40;99.90;-0.70;101571;;;;566896;252;24175;-75
2024/01/30 03:12:42;;;;;;;40.30;26.37;;;0.40;99.90;-0.70;101574;;;;567303;251;24132;-75
2024/01/30 03:15:10;;;;;;;38.63;24.03;;;0.30;99.90;-0.60;101573;;;;567952;252;24124;-76
2024/01/30 03:17:37;;;;;;;46.47;26.70;;;0.40;99.90;-0.60;101578;;;;567841;252;24123;-75
2024/01/30 03:20:06;;;;;;;42.67;25.77;;;0.40;99.90;-0.60;101577;;;;567952;252;24144;-74
2024/01/30 03:22:33;;;;;;;45.20;28.30;;;0.40;99.90;-0.60;101573;;;;559533;252;25153;-76
2024/01/30 03:25:01;;;;;;;41.13;26.07;;;0.40;99.90;-0.70;101584;;;;567258;252;24147;-76
2024/01/30 03:27:29;;;;;;;44.73;29.53;;;0.40;99.90;-0.80;101573;;;;567459;252;24113;-76
2024/01/30 03:29:57;;;;;;;46.53;28.53;;;0.30;99.90;-0.80;101585;;;;556716;253;24132;-76
2024/01/30 03:32:25;;;;;;;44.80;28.27;;;0.20;99.90;-0.90;101579;;;;567039;252;24141;-76
2024/01/30 03:34:53;;;;;;;48.00;26.67;;;0.20;99.90;-0.90;101576;;;;567146;252;24223;-75
2024/01/30 03:37:21;;;;;;;47.43;28.23;;;0.10;99.90;-1.00;101567;;;;567044;252;24118;-75
2024/01/30 03:39:49;;;;;;;47.87;27.50;;;0.10;99.90;-1.00;101578;;;;567156;252;24154;-77
2024/01/30 03:42:17;;;;;;;42.83;28.50;;;0.10;99.90;-1.00;101564;;;;567130;252;24151;-78
2024/01/30 03:44:45;;;;;;;50.67;30.10;;;0.00;99.90;-1.00;101569;;;;566983;252;24138;-77
2024/01/30 03:47:12;;;;;;;54.57;32.30;;;0.00;99.90;-1.00;101566;;;;567166;252;24221;-78
2024/01/30 03:49:45;;;;;;;47.37;28.40;;;0.00;99.90;-1.10;101571;;;;567257;252;24124;-78
2024/01/30 03:52:09;;;;;;;57.67;28.77;;;0.00;99.90;-1.20;101562;;;;565242;253;24120;-77
2024/01/30 03:54:36;;;;;;;47.77;29.27;;;-0.10;99.90;-1.20;101573;;;;567145;252;24115;-78
2024/01/30 03:57:08;;;;;;;53.17;29.77;;;-0.10;99.90;-1.20;101558;;;;544600;258;24262;-76
2024/01/30 03:59:32;;;;;;;48.93;30.20;;;-0.20;99.90;-1.20;101568;;;;556203;258;24168;-79
2024/01/30 04:02:00;;;;;;;46.47;28.73;;;-0.20;99.90;-1.20;101565;;;;556436;258;24126;-78
2024/01/30 04:04:28;;;;;;;47.73;27.27;;;-0.10;99.90;-1.10;101580;;;;553394;259;24177;-76
2024/01/30 04:06:56;;;;;;;47.83;27.60;;;-0.10;99.90;-1.10;101567;;;;556396;257;24149;-79
2024/01/30 04:09:26;;;;;;;46.72;24.15;;;-0.10;99.90;-1.10;101561;;;;543513;258;35764;-76
2024/01/30 04:11:52;;;;;;;53.65;29.50;;;-0.10;99.90;-1.10;101565;;;;545135;259;35772;-76
2024/01/30 04:14:20;;;;;;;40.80;18.93;;;-0.10;99.90;-1.20;101564;;;;556429;257;24145;-77
2024/01/30 04:16:48;;;;;;;30.30;15.20;;;-0.10;99.90;-1.30;101564;;;;556408;258;24180;-75
2024/01/30 04:19:15;;;;;;;30.00;13.03;;;-0.20;99.90;-1.30;101572;;;;556351;258;24145;-76
2024/01/30 04:21:43;;;;;;;33.83;17.10;;;-0.20;99.90;-1.30;101569;;;;556164;258;24158;-76
2024/01/30 04:24:12;;;;;;;47.27;20.27;;;-0.30;99.90;-1.40;101580;;;;556432;256;24150;-77
2024/01/30 04:26:41;;;;;;;44.33;24.33;;;-0.30;99.90;-1.40;101561;;;;545764;257;24211;-76
2024/01/30 04:29:09;;;;;;;45.73;28.67;;;-0.30;99.90;-1.40;101568;;;;556981;257;24148;-77
2024/01/30 04:31:38;;;;;;;57.47;31.70;;;-0.40;99.90;-1.50;101557;;;;556757;257;24199;-77
2024/01/30 04:34:07;;;;;;;56.00;34.47;;;-0.40;99.90;-1.50;101555;;;;556733;257;25172;-77
2024/01/30 04:36:35;;;;;;;51.63;30.77;;;-0.40;99.90;-1.50;101566;;;;556537;257;24149;-75
2024/01/30 04:39:03;;;;;;;52.03;31.63;;;-0.40;99.90;-1.50;101567;;;;548637;257;24140;-77
2024/01/30 04:41:32;;;;;;;49.90;31.07;;;-0.40;99.90;-1.50;101557;;;;556438;257;24149;-75
2024/01/30 04:44:00;;;;;;;51.67;30.03;;;-0.40;99.90;-1.50;101569;;;;556190;257;24161;-74
2024/01/30 04:46:28;;;;;;;55.43;31.27;;;-0.40;99.90;-1.50;101576;;;;556400;257;24186;-75
2024/01/30 04:48:56;;;;;;;49.23;31.17;;;-0.40;99.90;-1.50;101571;;;;556246;257;24185;-77
2024/01/30 04:51:24;;;;;;;49.70;30.77;;;-0.40;99.90;-1.60;101568;;;;556688;257;24147;-76
2024/01/30 04:53:52;;;;;;;55.23;31.43;;;-0.50;99.90;-1.60;101568;;;;556695;257;24140;-76
2024/01/30 04:56:20;;;;;;;51.73;30.77;;;-0.50;99.90;-1.60;101564;;;;556654;257;24133;-78
2024/01/30 04:58:48;;;;;;;51.23;32.60;;;-0.50;99.90;-1.60;101558;;;;544478;257;24141;-75
2024/01/30 05:01:16;;;;;;;57.43;34.13;;;-0.50;99.90;-1.60;101555;;;;553097;259;24183;-75
2024/01/30 05:03:43;;;;;;;49.87;31.00;;;-0.50;99.90;-1.60;101553;;;;542732;259;24158;-75
2024/01/30 05:06:11;;;;;;;61.20;39.50;;;-0.50;99.90;-1.60;101549;;;;548281;259;35636;-76
2024/01/30 05:08:39;;;;;;;35.70;15.40;;;-0.50;99.90;-1.50;101550;;;;545178;259;24196;-75
2024/01/30 05:11:07;;;;;;;38.00;17.13;;;-0.50;99.90;-1.50;101552;;;;553100;259;24151;-76
2024/01/30 05:13:35;;;;;;;46.20;25.17;;;-0.40;99.90;-1.50;101551;;;;543473;259;24207;-75
2024/01/30 05:16:04;;;;;;;50.33;31.40;;;-0.40;99.90;-1.50;101539;;;;556110;257;24156;-76
2024/01/30 05:18:32;;;;;;;58.07;33.27;;;-0.40;99.90;-1.50;101538;;;;555965;258;24193;-76
2024/01/30 05:21:00;;;;;;;60.27;33.77;;;-0.40;99.90;-1.50;101545;;;;556420;258;24173;-75
2024/01/30 05:23:28;;;;;;;51.07;31.70;;;-0.40;99.90;-1.40;101550;;;;556400;258;24129;-76
2024/01/30 05:25:56;;;;;;;52.63;32.33;;;-0.40;99.90;-1.40;101546;;;;556353;258;24176;-75
2024/01/30 05:28:24;;;;;;;55.87;34.67;;;-0.40;99.90;-1.40;101560;;;;544168;258;24134;-75
2024/01/30 05:30:51;;;;;;;48.67;31.47;;;-0.30;99.90;-1.50;101566;;;;556031;258;24188;-75
2024/01/30 05:33:19;;;;;;;50.53;31.07;;;-0.40;99.90;-1.50;101561;;;;556144;258;24169;-75
2024/01/30 05:35:48;;;;;;;49.57;32.30;;;-0.40;99.90;-1.50;101573;;;;556439;256;24143;-75
2024/01/30 05:38:18;;;;;;;53.77;34.27;;;-0.40;99.90;-1.60;101563;;;;557225;257;24141;-75
2024/01/30 05:40:43;;;;;;;49.87;31.83;;;-0.50;99.90;-1.60;101571;;;;548758;257;24145;-75
2024/01/30 05:43:11;;;;;;;51.90;31.17;;;-0.50;99.90;-1.50;101565;;;;556734;257;24167;-75
2024/01/30 05:45:42;;;;;;;51.53;30.20;;;-0.40;99.90;-1.50;101568;;;;556717;257;24144;-76
2024/01/30 05:48:07;;;;;;;46.00;30.17;;;-0.40;99.90;-1.50;101565;;;;545270;259;24225;-75
2024/01/30 05:50:35;;;;;;;52.30;31.77;;;-0.40;99.90;-1.40;101561;;;;556865;257;24214;-75
2024/01/30 05:53:03;;;;;;;46.47;28.53;;;-0.40;99.90;-1.40;101555;;;;556906;257;25207;-75
2024/01/30 05:55:31;;;;;;;40.70;28.03;;;-0.30;99.90;-1.40;101566;;;;556673;257;24146;-75
2024/01/30 05:57:59;;;;;;;45.13;28.77;;;-0.30;99.90;-1.30;101554;;;;556707;257;24191;-74
2024/01/30 06:00:26;;;;;;;55.72;31.70;;;-0.20;99.90;-1.20;101552;;;;539682;257;35653;-75
2024/01/30 06:02:54;;;;;;;33.20;14.67;;;-0.20;99.90;-1.20;101563;;;;546549;257;24163;-74
2024/01/30 06:05:23;;;;;;;29.33;13.07;;;-0.10;99.90;-1.20;101561;;;;556276;257;24137;-76
2024/01/30 06:07:52;;;;;;;35.97;15.80;;;-0.10;99.90;-1.20;101552;;;;556394;257;24197;-76
2024/01/30 06:10:20;;;;;;;33.70;17.77;;;0.00;99.90;-1.10;101560;;;;556304;257;24205;-78
2024/01/30 06:12:48;;;;;;;44.10;23.17;;;-0.10;99.90;-1.10;101559;;;;546031;262;24221;-77
2024/01/30 06:15:16;;;;;;;37.70;22.33;;;0.00;99.90;-1.10;101563;;;;556127;258;24152;-76
2024/01/30 06:17:43;;;;;;;50.87;25.40;;;0.00;99.90;-1.10;101568;;;;546017;262;24221;-75
2024/01/30 06:20:12;;;;;;;45.43;27.20;;;0.00;99.90;-1.10;101567;;;;546147;262;24163;-76
2024/01/30 06:22:41;;;;;;;44.77;26.30;;;0.00;99.90;-1.10;101578;;;;546362;262;24240;-76
2024/01/30 06:25:12;;;;;;;49.90;29.73;;;0.00;99.90;-1.10;101563;;;;546398;262;24167;-78
2024/01/30 06:27:38;;;;;;;41.67;24.63;;;0.00;99.90;-1.10;101568;;;;547853;258;24207;-76
2024/01/30 06:30:10;;;;;;;50.53;27.57;;;-0.10;99.90;-1.20;101578;;;;545955;262;24241;-76
2024/01/30 06:32:35;;;;;;;40.30;25.63;;;-0.10;99.90;-1.20;101577;;;;553379;259;24143;-75
2024/01/30 06:35:03;;;;;;;42.13;26.63;;;-0.10;99.90;-1.30;101571;;;;548017;258;24182;-76
2024/01/30 06:37:31;;;;;;;40.17;26.70;;;-0.10;99.90;-1.30;101566;;;;556175;258;24220;-75
2024/01/30 06:39:59;;;;;;;39.77;25.10;;;-0.20;99.90;-1.30;101567;;;;556032;258;24167;-76
2024/01/30 06:42:27;;;;;;;44.40;28.37;;;-0.20;99.90;-1.30;101563;;;;556433;258;24172;-79
2024/01/30 06:44:55;;;;;;;42.20;26.83;;;-0.20;99.90;-1.30;101561;;;;556103;258;24141;-78
2024/01/30 06:47:22;;;;;;;43.77;24.53;;;-0.20;99.90;-1.30;101561;;;;556377;256;24220;-77
2024/01/30 06:49:50;;;;;;;38.50;22.77;;;-0.20;99.90;-1.30;101554;;;;557438;256;24152;-78
2024/01/30 06:52:18;;;;;;;43.40;25.10;;;-0.20;99.90;-1.30;101560;;;;557307;257;24137;-78
2024/01/30 06:54:46;;;;;;;42.03;21.63;;;-0.20;99.90;-1.20;101558;;;;554207;259;24154;-78
2024/01/30 06:57:14;;;;;;;41.50;24.03;;;-0.10;99.90;-1.10;101561;;;;557063;256;24197;-78
2024/01/30 06:59:43;;;;;;;40.07;23.33;;;-0.10;99.90;-1.10;101564;;;;548830;257;24192;-77
2024/01/30 07:02:10;;;;;;;33.33;15.07;;;0.00;99.90;-1.00;101559;;;;556507;257;24171;-78
2024/01/30 07:04:39;;;;;;;38.40;16.10;;;0.10;99.90;-0.90;101554;;;;556335;257;24162;-76
2024/01/30 07:07:11;;;;;;;33.50;15.40;;;0.20;99.90;-0.80;101554;;;;546332;262;24183;-76
2024/01/30 07:09:36;;;;;;;30.17;14.43;;;0.20;99.90;-0.80;101556;;;;546233;262;24197;-76
2024/01/30 07:12:02;;;;;;;32.37;15.10;;;0.30;99.90;-0.70;101557;;;;546440;261;24214;-77
2024/01/30 07:14:33;;;;;;;29.83;15.20;;;0.40;99.90;-0.60;101561;;;;546426;262;24181;-77
2024/01/30 07:16:58;;;;;;;27.40;14.20;;;0.50;99.90;-0.50;101555;;;;538643;262;24213;-77
2024/01/30 07:19:25;;;;;;;36.50;13.63;;;0.50;99.90;-0.40;101557;;;;546437;262;24187;-76
2024/01/30 07:21:53;;;;;;;28.27;14.90;;;0.60;99.90;-0.30;101556;;;;546672;262;24293;-77
2024/01/30 07:24:21;;;;;;;32.20;15.03;;;0.80;99.90;-0.20;101551;;;;546494;262;24580;-77
2024/01/30 07:26:49;;;;;;;24.07;14.17;;;0.80;99.90;-0.10;101547;;;;546241;262;24182;-76
2024/01/30 07:29:17;;;;;;;25.60;13.83;;;1.00;99.90;0.00;101545;;;;545954;262;24241;-76
2024/01/30 07:31:46;;;;;;;27.13;13.03;;;1.20;99.90;0.20;101546;;;;552947;259;24150;-77
2024/01/30 07:34:15;;;;;;;28.73;13.53;;;1.40;99.90;0.30;101544;;;;542536;259;24147;-76
2024/01/30 07:36:42;;;;;;;33.83;14.10;;;1.30;99.90;0.40;101549;;;;542646;259;25251;-78
2024/01/30 07:39:10;;;;;;;42.30;14.33;;;1.50;99.90;0.60;101550;;;;542658;259;24265;-77
2024/01/30 07:41:38;;;;;;;26.00;13.40;;;1.60;99.90;0.70;101550;;;;542772;259;24158;-79
2024/01/30 07:44:06;;;;;;;31.03;12.70;;;1.80;99.90;0.80;101555;;;;542660;259;24144;-76
2024/01/30 07:46:34;;;;;;;33.10;12.77;;;1.90;99.90;1.00;101562;;;;542598;259;24162;-77
2024/01/30 07:49:02;;;;;;;20.50;10.33;;;2.00;99.90;1.10;101548;;;;542689;259;25226;-78
2024/01/30 07:51:31;;;;;;;24.27;12.10;;;2.10;99.90;1.20;101552;;;;542685;259;24160;-76
2024/01/30 07:53:59;;;;;;;31.33;18.15;;;2.40;99.90;1.30;101550;;;;538146;259;35791;-76
2024/01/30 07:56:27;;;;;;;29.10;15.93;;;2.50;99.90;1.50;101541;;;;545059;259;24233;-76
2024/01/30 07:58:55;;;;;;;30.27;14.80;;;2.50;99.90;1.60;101552;;;;543280;258;24203;-76
2024/01/30 08:01:23;;;;;;;27.40;13.57;;;2.60;99.90;1.70;101550;;;;544162;259;24174;-77
2024/01/30 08:03:51;;;;;;;22.33;11.83;;;2.70;99.90;1.80;101545;;;;553912;258;24194;-76
2024/01/30 08:06:19;;;;;;;22.53;11.93;;;2.80;99.90;1.90;101549;;;;543516;259;24163;-75
2024/01/30 08:08:47;;;;;;;20.67;11.77;;;2.90;99.90;2.10;101545;;;;543217;259;24141;-77
2024/01/30 08:11:15;;;;;;;18.77;12.20;;;3.10;99.90;2.10;101537;;;;543158;259;24199;-77
2024/01/30 08:13:46;;;;;;;23.20;10.67;;;3.20;99.90;2.30;101544;;;;543242;259;24138;-76
2024/01/30 08:16:10;;;;;;;25.00;12.33;;;3.30;99.90;2.40;101543;;;;543075;259;24186;-76
2024/01/30 08:18:41;;;;;;;26.30;12.40;;;3.40;99.90;2.50;101543;;;;543616;259;24137;-78
2024/01/30 08:21:06;;;;;;;27.23;11.97;;;3.50;99.90;2.70;101543;;;;545236;259;24188;-77
2024/01/30 08:23:34;;;;;;;23.97;12.87;;;3.60;99.90;2.80;101542;;;;556549;253;24144;-77
2024/01/30 08:26:02;;;;;;;22.33;12.43;;;3.80;99.90;3.00;101546;;;;556805;253;24133;-76
2024/01/30 08:28:31;;;;;;;32.13;13.57;;;4.10;99.90;3.10;101541;;;;556395;253;24104;-78
2024/01/30 08:30:59;;;;;;;22.97;12.73;;;4.10;99.90;3.30;101545;;;;556492;253;24140;-78
2024/01/30 08:33:27;;;;;;;25.27;12.63;;;4.30;99.90;3.40;101546;;;;566987;252;24141;-78
2024/01/30 08:35:55;;;;;;;25.80;11.67;;;4.40;99.90;3.60;101548;;;;556380;253;24151;-77
2024/01/30 08:38:22;;;;;;;23.07;12.00;;;4.60;99.90;3.80;101545;;;;556271;253;24163;-77
2024/01/30 08:40:50;;;;;;;24.20;12.53;;;4.70;99.90;3.90;101551;;;;558394;253;24174;-77
2024/01/30 08:43:18;;;;;;;29.00;17.40;;;4.80;99.90;4.00;101559;;;;551416;253;46508;-78
2024/01/30 08:45:47;;;;;;;23.73;14.63;;;5.10;99.90;4.10;101562;;;;566805;252;24143;-77
2024/01/30 08:48:15;;;;;;;27.80;13.93;;;5.00;99.90;4.20;101559;;;;556300;253;24289;-79
2024/01/30 08:50:43;;;;;;;25.10;13.93;;;5.20;99.90;4.40;101563;;;;556081;257;24174;-78
2024/01/30 08:53:11;;;;;;;32.20;13.53;;;5.30;99.90;4.50;101564;;;;534697;262;24172;-77
2024/01/30 08:55:39;;;;;;;35.47;15.60;;;5.50;99.90;4.70;101566;;;;534919;262;24219;-76
2024/01/30 08:58:07;;;;;;;32.17;13.50;;;5.60;99.90;4.90;101572;;;;534907;262;24166;-77
2024/01/30 09:00:35;;;;;;;31.33;16.10;;;6.00;99.90;5.10;101567;;;;534890;262;24241;-76
2024/01/30 09:03:06;;;;;;;36.27;17.13;;;6.00;99.90;5.30;101568;;;;534937;262;24182;-76
2024/01/30 09:05:34;;;;;;;36.97;16.33;;;6.40;99.90;5.40;101567;;;;556194;255;25265;-76
2024/01/30 09:08:02;;;;;;;32.53;17.20;;;6.30;99.90;5.50;101567;;;;534603;262;24181;-75
2024/01/30 09:10:30;;;;;;;26.47;15.63;;;6.50;99.90;5.50;101574;;;;535076;261;24226;-75
2024/01/30 09:12:58;;;;;;;30.07;17.77;;;6.50;99.90;5.60;101572;;;;535749;262;24195;-76
2024/01/30 09:15:26;;;;;;;28.13;15.47;;;6.60;99.90;5.60;101569;;;;535302;262;24213;-76
2024/01/30 09:17:58;;;;;;;29.47;14.87;;;6.60;99.90;5.70;101572;;;;535390;262;24217;-76
2024/01/30 09:20:22;;;;;;;30.57;16.97;;;6.70;99.90;5.80;101560;;;;546195;262;24240;-77
2024/01/30 09:22:50;;;;;;;35.13;18.60;;;6.80;99.90;5.80;101570;;;;535047;262;24192;-76
2024/01/30 09:25:19;;;;;;;33.03;18.63;;;6.80;99.90;5.90;101566;;;;535063;262;24230;-76
2024/01/30 09:27:46;;;;;;;33.70;17.97;;;6.90;99.90;6.00;101563;;;;534996;262;24221;-75
2024/01/30 09:30:14;;;;;;;38.33;16.60;;;6.90;99.90;6.10;101565;;;;545030;259;24154;-76
2024/01/30 09:32:43;;;;;;;32.80;18.03;;;7.00;99.90;6.10;101563;;;;553281;259;24128;-75
2024/01/30 09:35:10;;;;;;;36.43;16.87;;;7.10;99.90;6.20;101565;;;;556344;253;24151;-77
2024/01/30 09:37:38;;;;;;;35.63;19.00;;;7.20;99.90;6.30;101563;;;;556455;253;24145;-76
2024/01/30 09:40:10;;;;;;;42.73;19.40;;;7.30;99.90;6.40;101565;;;;556765;253;24117;-77
2024/01/30 09:42:38;;;;;;;39.40;20.80;;;7.40;99.90;6.50;101569;;;;558372;253;24126;-77
2024/01/30 09:45:05;;;;;;;48.97;23.97;;;7.50;99.90;6.60;101580;;;;558420;253;24144;-76
2024/01/30 09:47:33;;;;;;;55.97;26.80;;;7.60;99.90;6.70;101573;;;;556295;253;24122;-78
2024/01/30 09:50:04;;;;;;;51.17;26.77;;;7.70;99.90;6.70;101572;;;;556181;253;24277;-78
2024/01/30 09:52:29;;;;;;;50.57;25.43;;;7.70;99.90;6.60;101575;;;;558343;253;25161;-77
2024/01/30 09:54:56;;;;;;;43.50;22.80;;;7.60;99.90;6.30;101565;;;;556301;253;24166;-75
2024/01/30 09:57:26;;;;;;;43.87;22.93;;;7.10;99.90;6.10;101559;;;;556528;253;24124;-76
2024/01/30 09:59:57;;;;;;;40.90;22.70;;;7.10;99.90;6.00;101558;;;;556468;253;24113;-75
2024/01/30 10:02:21;;;;;;;43.67;21.77;;;6.90;99.90;5.80;101551;;;;556382;253;24160;-77
2024/01/30 10:04:49;;;;;;;41.80;23.37;;;6.70;99.90;5.60;101559;;;;556626;253;24116;-78
2024/01/30 10:07:17;;;;;;;50.50;25.20;;;6.50;99.90;5.40;101551;;;;558540;253;24191;-77
2024/01/30 10:09:45;;;;;;;46.80;24.00;;;6.40;99.90;5.30;101544;;;;556823;253;24132;-75
2024/01/30 10:12:13;;;;;;;42.50;23.47;;;6.30;99.90;5.30;101551;;;;558237;253;24089;-79
2024/01/30 10:14:43;;;;;;;46.77;26.97;;;6.20;99.90;5.30;101543;;;;556507;253;24138;-76
2024/01/30 10:17:12;;;;;;;45.50;24.57;;;6.30;99.90;5.40;101551;;;;557872;253;24121;-76
2024/01/30 10:19:40;;;;;;;39.33;21.63;;;6.30;99.90;5.50;101537;;;;556833;253;24128;-77
2024/01/30 10:22:08;;;;;;;38.17;21.27;;;6.40;99.90;5.60;101545;;;;556543;252;24160;-76
2024/01/30 10:24:37;;;;;;;43.93;24.53;;;6.70;99.90;5.80;101542;;;;559662;252;24114;-78
2024/01/30 10:27:05;;;;;;;53.73;26.63;;;6.80;99.90;5.90;101531;;;;557573;253;24132;-77
2024/01/30 10:29:33;;;;;;;44.27;24.70;;;6.80;99.90;6.00;101532;;;;559487;253;24154;-77
2024/01/30 10:32:01;;;;;;;37.57;21.47;;;6.90;99.90;6.10;101530;;;;557119;253;24116;-76
2024/01/30 10:34:29;;;;;;;39.23;20.30;;;7.00;99.90;6.10;101524;;;;557019;253;24156;-76
2024/01/30 10:37:15;;;;;;;38.87;20.20;;;7.00;99.90;6.20;101530;;;;567278;252;24192;-77
2024/01/30 10:39:37;;;;;;;41.50;23.10;;;7.10;99.90;6.20;101536;;;;567071;253;24144;-76
2024/01/30 10:42:06;;;;;;;36.50;20.03;;;7.10;99.90;6.20;101531;;;;556398;253;24103;-77
2024/01/30 10:44:55;;;;;;;34.97;19.57;;;7.00;99.90;6.10;101532;;;;558779;253;24165;-77
2024/01/30 10:47:23;;;;;;;36.27;19.63;;;7.00;99.90;6.20;101534;;;;556381;253;24174;-78
2024/01/30 10:49:51;;;;;;;37.73;19.37;;;7.00;99.90;6.20;101524;;;;556726;253;24128;-76
2024/01/30 10:52:21;;;;;;;40.17;19.63;;;7.10;99.90;6.30;101525;;;;557021;253;24142;-75
2024/01/30 10:54:47;;;;;;;33.67;18.10;;;7.10;99.90;6.30;101531;;;;557426;253;24187;-76
2024/01/30 10:57:14;;;;;;;39.70;19.63;;;7.20;99.90;6.40;101526;;;;559607;253;24177;-74
2024/01/30 10:59:42;;;;;;;35.43;17.73;;;7.20;99.90;6.30;101528;;;;559749;253;24112;-75
2024/01/30 11:02:10;;;;;;;29.00;17.57;;;7.20;99.90;6.40;101523;;;;555391;253;24103;-78
2024/01/30 11:04:38;;;;;;;41.90;18.90;;;7.20;99.90;6.30;101517;;;;558988;253;24143;-75